sensor_id;sensor_type;location;lat;lon;timestamp;pressure;altitude;pressure_sealevel;temperature;humidity
59588;BME280;45412;54.472;18.464;2024-01-10T09:17:08;101361.77;;;-0.21;100.00
59588;BME280;45412;54.472;18.464;2024-01-10T09:19:57;101365.17;;;-0.28;100.00
59588;BME280;45412;54.472;18.464;2024-01-10T09:22:45;101367.62;;;-0.29;100.00
59588;BME280;45412;54.472;18.464;2024-01-10T09:25:34;101361.67;;;-0.26;100.00
59588;BME280;45412;54.472;18.464;2024-01-10T09:28:25;101362.24;;;-0.31;100.00
59588;BME280;45412;54.472;18.464;2024-01-10T09:31:14;101364.72;;;-0.34;100.00
59588;BME280;45412;54.472;18.464;2024-01-10T09:34:02;101365.24;;;-0.34;100.00
59588;BME280;45412;54.472;18.464;2024-01-10T09:36:52;101367.09;;;-0.28;100.00
59588;BME280;45412;54.472;18.464;2024-01-10T09:39:40;101361.48;;;-0.26;100.00
59588;BME280;45412;54.472;18.464;2024-01-10T09:42:30;101355.16;;;-0.23;100.00
59588;BME280;45412;54.472;18.464;2024-01-10T09:45:21;101356.31;;;-0.17;100.00
59588;BME280;45412;54.472;18.464;2024-01-10T09:48:14;101351.05;;;-0.14;100.00
59588;BME280;45412;54.472;18.464;2024-01-10T09:51:04;101339.87;;;-0.13;100.00
59588;BME280;45412;54.472;18.464;2024-01-10T09:53:53;101338.11;;;-0.12;100.00
59588;BME280;45412;54.472;18.464;2024-01-10T09:56:42;101339.52;;;-0.13;100.00
59588;BME280;45412;54.472;18.464;2024-01-10T09:59:30;101335.85;;;-0.13;100.00
59588;BME280;45412;54.472;18.464;2024-01-10T10:02:19;101324.10;;;-0.08;100.00
59588;BME280;45412;54.472;18.464;2024-01-10T10:05:17;101318.13;;;-0.06;100.00
59588;BME280;45412;54.472;18.464;2024-01-10T10:08:12;101315.63;;;-0.01;100.00
59588;BME280;45412;54.472;18.464;2024-01-10T10:11:03;101316.20;;;-0.06;100.00
59588;BME280;45412;54.472;18.464;2024-01-10T10:13:51;101310.10;;;-0.05;100.00
59588;BME280;45412;54.472;18.464;2024-01-10T10:16:39;101307.79;;;-0.02;100.00
59588;BME280;45412;54.472;18.464;2024-01-10T10:19:29;101305.98;;;0.02;100.00
59588;BME280;45412;54.472;18.464;2024-01-10T10:22:29;101310.94;;;0.10;100.00
59588;BME280;45412;54.472;18.464;2024-01-10T10:25:17;101304.23;;;0.15;100.00
59588;BME280;45412;54.472;18.464;2024-01-10T10:28:06;101303.21;;;0.13;100.00
59588;BME280;45412;54.472;18.464;2024-01-10T10:30:57;101297.92;;;0.05;100.00
59588;BME280;45412;54.472;18.464;2024-01-10T10:33:49;101304.88;;;0.06;100.00
59588;BME280;45412;54.472;18.464;2024-01-10T10:36:39;101305.77;;;0.06;100.00
59588;BME280;45412;54.472;18.464;2024-01-10T10:39:27;101305.05;;;0.06;100.00
59588;BME280;45412;54.472;18.464;2024-01-10T10:42:17;101302.80;;;0.05;100.00
59588;BME280;45412;54.472;18.464;2024-01-10T10:45:17;101304.06;;;0.03;100.00
59588;BME280;45412;54.472;18.464;2024-01-10T10:48:07;101303.46;;;0.08;100.00
59588;BME280;45412;54.472;18.464;2024-01-10T10:51:04;101301.69;;;0.09;100.00
59588;BME280;45412;54.472;18.464;2024-01-10T10:53:58;101303.23;;;0.11;100.00
59588;BME280;45412;54.472;18.464;2024-01-10T10:56:48;101303.96;;;0.09;100.00
59588;BME280;45412;54.472;18.464;2024-01-10T10:59:38;101304.51;;;0.08;100.00
59588;BME280;45412;54.472;18.464;2024-01-10T11:02:27;101307.86;;;0.06;100.00
59588;BME280;45412;54.472;18.464;2024-01-10T11:05:20;101300.17;;;0.06;100.00
59588;BME280;45412;54.472;18.464;2024-01-10T11:08:14;101303.99;;;0.07;100.00
59588;BME280;45412;54.472;18.464;2024-01-10T11:11:11;101304.14;;;0.10;100.00
59588;BME280;45412;54.472;18.464;2024-01-10T11:24:51;101292.27;;;0.09;100.00
59588;BME280;45412;54.472;18.464;2024-01-10T11:27:39;101286.46;;;0.12;100.00
59588;BME280;45412;54.472;18.464;2024-01-10T11:30:35;101284.20;;;0.12;100.00
59588;BME280;45412;54.472;18.464;2024-01-10T11:33:33;101284.52;;;0.13;100.00
59588;BME280;45412;54.472;18.464;2024-01-10T11:36:22;101283.66;;;0.13;100.00
59588;BME280;45412;54.472;18.464;2024-01-10T11:39:12;101277.88;;;0.14;100.00
59588;BME280;45412;54.472;18.464;2024-01-10T11:42:04;101275.79;;;0.15;100.00
59588;BME280;45412;54.472;18.464;2024-01-10T11:44:53;101272.17;;;0.11;100.00
59588;BME280;45412;54.472;18.464;2024-01-10T11:47:42;101273.60;;;0.09;100.00
59588;BME280;45412;54.472;18.464;2024-01-10T11:50:30;101273.73;;;0.11;100.00
59588;BME280;45412;54.472;18.464;2024-01-10T11:53:43;101273.56;;;0.11;100.00
59588;BME280;45412;54.472;18.464;2024-01-10T11:56:42;101274.16;;;0.07;100.00
59588;BME280;45412;54.472;18.464;2024-01-10T11:59:31;101270.52;;;0.04;100.00
59588;BME280;45412;54.472;18.464;2024-01-10T12:02:22;101269.19;;;0.01;100.00
59588;BME280;45412;54.472;18.464;2024-01-10T12:05:12;101270.91;;;0.03;100.00
59588;BME280;45412;54.472;18.464;2024-01-10T12:08:07;101266.16;;;0.05;100.00
59588;BME280;45412;54.472;18.464;2024-01-10T12:11:06;101261.55;;;0.10;100.00
59588;BME280;45412;54.472;18.464;2024-01-10T12:13:54;101258.77;;;0.08;100.00
59588;BME280;45412;54.472;18.464;2024-01-10T12:16:43;101248.52;;;0.06;100.00
59588;BME280;45412;54.472;18.464;2024-01-10T12:19:33;101250.42;;;0.07;100.00
59588;BME280;45412;54.472;18.464;2024-01-10T12:22:22;101246.77;;;0.05;100.00
59588;BME280;45412;54.472;18.464;2024-01-10T12:25:11;101247.14;;;0.04;100.00
59588;BME280;45412;54.472;18.464;2024-01-10T12:28:03;101244.85;;;0.05;100.00
59588;BME280;45412;54.472;18.464;2024-01-10T12:30:53;101240.89;;;0.02;100.00
59588;BME280;45412;54.472;18.464;2024-01-10T12:33:41;101249.26;;;0.03;100.00
59588;BME280;45412;54.472;18.464;2024-01-10T12:36:30;101238.60;;;0.04;100.00
59588;BME280;45412;54.472;18.464;2024-01-10T12:39:19;101233.17;;;0.05;100.00
59588;BME280;45412;54.472;18.464;2024-01-10T12:42:07;101231.99;;;0.03;100.00
59588;BME280;45412;54.472;18.464;2024-01-10T12:44:57;101233.77;;;0.00;100.00
59588;BME280;45412;54.472;18.464;2024-01-10T12:47:46;101222.07;;;0.01;100.00
59588;BME280;45412;54.472;18.464;2024-01-10T12:50:34;101217.36;;;0.01;100.00
59588;BME280;45412;54.472;18.464;2024-01-10T12:53:22;101219.77;;;0.03;100.00
59588;BME280;45412;54.472;18.464;2024-01-10T12:56:11;101216.11;;;0.02;100.00
59588;BME280;45412;54.472;18.464;2024-01-10T12:59:02;101215.96;;;0.01;100.00
59588;BME280;45412;54.472;18.464;2024-01-10T13:01:50;101214.71;;;0.03;100.00
59588;BME280;45412;54.472;18.464;2024-01-10T13:04:38;101218.70;;;0.04;100.00
59588;BME280;45412;54.472;18.464;2024-01-10T13:07:26;101207.93;;;0.01;100.00
59588;BME280;45412;54.472;18.464;2024-01-10T13:10:15;101203.07;;;-0.00;100.00
59588;BME280;45412;54.472;18.464;2024-01-10T13:13:03;101203.93;;;0.01;100.00
59588;BME280;45412;54.472;18.464;2024-01-10T13:15:50;101202.56;;;-0.01;100.00
59588;BME280;45412;54.472;18.464;2024-01-10T13:18:40;101201.34;;;-0.02;100.00
59588;BME280;45412;54.472;18.464;2024-01-10T13:21:29;101201.15;;;-0.01;100.00
59588;BME280;45412;54.472;18.464;2024-01-10T13:24:17;101196.58;;;0.01;100.00
59588;BME280;45412;54.472;18.464;2024-01-10T13:27:05;101192.94;;;0.01;100.00
59588;BME280;45412;54.472;18.464;2024-01-10T13:29:53;101186.65;;;-0.00;100.00
59588;BME280;45412;54.472;18.464;2024-01-10T13:32:41;101179.94;;;-0.06;100.00
59588;BME280;45412;54.472;18.464;2024-01-10T13:35:29;101176.14;;;-0.08;100.00
59588;BME280;45412;54.472;18.464;2024-01-10T13:38:17;101176.98;;;-0.07;100.00
59588;BME280;45412;54.472;18.464;2024-01-10T13:41:05;101172.44;;;-0.06;100.00
59588;BME280;45412;54.472;18.464;2024-01-10T13:43:54;101166.55;;;-0.09;100.00
59588;BME280;45412;54.472;18.464;2024-01-10T13:46:42;101167.23;;;-0.08;100.00
59588;BME280;45412;54.472;18.464;2024-01-10T13:49:30;101169.36;;;-0.10;100.00
59588;BME280;45412;54.472;18.464;2024-01-10T13:52:20;101170.27;;;-0.12;100.00
59588;BME280;45412;54.472;18.464;2024-01-10T13:55:08;101177.23;;;-0.11;100.00
59588;BME280;45412;54.472;18.464;2024-01-10T13:57:58;101182.33;;;-0.13;100.00
59588;BME280;45412;54.472;18.464;2024-01-10T14:00:46;101176.27;;;-0.17;100.00
59588;BME280;45412;54.472;18.464;2024-01-10T14:03:34;101177.02;;;-0.20;100.00
59588;BME280;45412;54.472;18.464;2024-01-10T14:06:23;101171.83;;;-0.23;100.00
59588;BME280;45412;54.472;18.464;2024-01-10T14:09:11;101170.66;;;-0.26;100.00
59588;BME280;45412;54.472;18.464;2024-01-10T14:11:58;101165.11;;;-0.28;100.00
59588;BME280;45412;54.472;18.464;2024-01-10T14:14:47;101166.13;;;-0.26;100.00
59588;BME280;45412;54.472;18.464;2024-01-10T14:17:34;101165.94;;;-0.26;100.00
59588;BME280;45412;54.472;18.464;2024-01-10T14:20:22;101162.27;;;-0.25;100.00
59588;BME280;45412;54.472;18.464;2024-01-10T14:23:10;101161.76;;;-0.26;100.00
59588;BME280;45412;54.472;18.464;2024-01-10T14:25:59;101162.30;;;-0.28;100.00
59588;BME280;45412;54.472;18.464;2024-01-10T14:28:48;101159.23;;;-0.31;100.00
59588;BME280;45412;54.472;18.464;2024-01-10T14:31:37;101161.31;;;-0.31;100.00
59588;BME280;45412;54.472;18.464;2024-01-10T14:34:44;101152.50;;;-0.36;100.00
59588;BME280;45412;54.472;18.464;2024-01-10T14:37:35;101145.17;;;-0.37;100.00
59588;BME280;45412;54.472;18.464;2024-01-10T14:40:24;101149.24;;;-0.40;100.00
59588;BME280;45412;54.472;18.464;2024-01-10T14:43:13;101146.45;;;-0.40;100.00
59588;BME280;45412;54.472;18.464;2024-01-10T14:46:01;101146.80;;;-0.40;100.00
59588;BME280;45412;54.472;18.464;2024-01-10T14:48:50;101145.41;;;-0.41;100.00
59588;BME280;45412;54.472;18.464;2024-01-10T14:51:38;101139.84;;;-0.41;100.00
59588;BME280;45412;54.472;18.464;2024-01-10T14:54:26;101145.59;;;-0.41;100.00
59588;BME280;45412;54.472;18.464;2024-01-10T14:57:14;101146.30;;;-0.42;100.00
59588;BME280;45412;54.472;18.464;2024-01-10T15:00:04;101140.21;;;-0.43;100.00
59588;BME280;45412;54.472;18.464;2024-01-10T15:02:53;101139.89;;;-0.45;100.00
59588;BME280;45412;54.472;18.464;2024-01-10T15:05:42;101133.29;;;-0.46;100.00
59588;BME280;45412;54.472;18.464;2024-01-10T15:08:30;101133.81;;;-0.46;100.00
59588;BME280;45412;54.472;18.464;2024-01-10T15:11:18;101131.70;;;-0.45;100.00
59588;BME280;45412;54.472;18.464;2024-01-10T15:14:08;101129.09;;;-0.46;100.00
59588;BME280;45412;54.472;18.464;2024-01-10T15:16:56;101124.92;;;-0.47;100.00
59588;BME280;45412;54.472;18.464;2024-01-10T15:19:46;101117.45;;;-0.48;100.00
59588;BME280;45412;54.472;18.464;2024-01-10T15:22:34;101124.42;;;-0.48;100.00
59588;BME280;45412;54.472;18.464;2024-01-10T15:25:24;101131.77;;;-0.49;100.00
59588;BME280;45412;54.472;18.464;2024-01-10T15:28:12;101129.67;;;-0.49;100.00
59588;BME280;45412;54.472;18.464;2024-01-10T15:31:00;101125.98;;;-0.48;100.00
59588;BME280;45412;54.472;18.464;2024-01-10T15:33:48;101117.98;;;-0.48;100.00
59588;BME280;45412;54.472;18.464;2024-01-10T15:36:41;101112.05;;;-0.48;100.00
59588;BME280;45412;54.472;18.464;2024-01-10T15:39:31;101108.23;;;-0.49;100.00
59588;BME280;45412;54.472;18.464;2024-01-10T15:42:20;101093.85;;;-0.56;100.00
59588;BME280;45412;54.472;18.464;2024-01-10T15:45:11;101090.84;;;-0.53;100.00
59588;BME280;45412;54.472;18.464;2024-01-10T15:48:01;101084.05;;;-0.53;100.00
59588;BME280;45412;54.472;18.464;2024-01-10T15:50:50;101079.23;;;-0.56;100.00
59588;BME280;45412;54.472;18.464;2024-01-10T15:53:38;101072.29;;;-0.59;100.00
59588;BME280;45412;54.472;18.464;2024-01-10T15:56:26;101066.52;;;-0.59;100.00
59588;BME280;45412;54.472;18.464;2024-01-10T15:59:15;101069.54;;;-0.62;100.00
59588;BME280;45412;54.472;18.464;2024-01-10T16:02:05;101067.61;;;-0.61;100.00
59588;BME280;45412;54.472;18.464;2024-01-10T16:04:53;101066.40;;;-0.62;100.00
59588;BME280;45412;54.472;18.464;2024-01-10T16:07:42;101062.56;;;-0.61;100.00
59588;BME280;45412;54.472;18.464;2024-01-10T16:10:30;101061.13;;;-0.59;100.00
59588;BME280;45412;54.472;18.464;2024-01-10T16:13:18;101058.84;;;-0.58;100.00
59588;BME280;45412;54.472;18.464;2024-01-10T16:16:07;101049.10;;;-0.59;100.00
59588;BME280;45412;54.472;18.464;2024-01-10T16:19:03;101053.69;;;-0.62;100.00
59588;BME280;45412;54.472;18.464;2024-01-10T16:21:57;101051.33;;;-0.68;100.00
59588;BME280;45412;54.472;18.464;2024-01-10T16:24:45;101052.58;;;-0.69;100.00
59588;BME280;45412;54.472;18.464;2024-01-10T16:27:33;101049.46;;;-0.71;100.00
59588;BME280;45412;54.472;18.464;2024-01-10T16:30:23;101049.83;;;-0.72;100.00
59588;BME280;45412;54.472;18.464;2024-01-10T16:33:11;101050.02;;;-0.73;100.00
59588;BME280;45412;54.472;18.464;2024-01-10T16:35:59;101042.02;;;-0.74;100.00
59588;BME280;45412;54.472;18.464;2024-01-10T16:38:49;101033.34;;;-0.77;100.00
59588;BME280;45412;54.472;18.464;2024-01-10T16:41:39;101040.59;;;-0.72;100.00
59588;BME280;45412;54.472;18.464;2024-01-10T16:44:28;101039.36;;;-0.71;100.00
59588;BME280;45412;54.472;18.464;2024-01-10T16:47:18;101042.79;;;-0.69;100.00
59588;BME280;45412;54.472;18.464;2024-01-10T16:50:07;101037.90;;;-0.67;100.00
59588;BME280;45412;54.472;18.464;2024-01-10T16:52:59;101033.54;;;-0.66;100.00
59588;BME280;45412;54.472;18.464;2024-01-10T16:55:49;101028.80;;;-0.65;100.00
59588;BME280;45412;54.472;18.464;2024-01-10T16:58:37;101028.27;;;-0.64;100.00
59588;BME280;45412;54.472;18.464;2024-01-10T17:01:25;101034.02;;;-0.64;100.00
59588;BME280;45412;54.472;18.464;2024-01-10T17:04:14;101035.38;;;-0.63;100.00
59588;BME280;45412;54.472;18.464;2024-01-10T17:07:01;101039.20;;;-0.61;100.00
59588;BME280;45412;54.472;18.464;2024-01-10T17:09:52;101035.95;;;-0.65;100.00
59588;BME280;45412;54.472;18.464;2024-01-10T17:12:40;101044.10;;;-0.63;100.00
59588;BME280;45412;54.472;18.464;2024-01-10T17:15:28;101040.30;;;-0.64;100.00
59588;BME280;45412;54.472;18.464;2024-01-10T17:18:16;101034.90;;;-0.66;100.00
59588;BME280;45412;54.472;18.464;2024-01-10T17:21:07;101031.05;;;-0.64;100.00
59588;BME280;45412;54.472;18.464;2024-01-10T17:23:56;101026.53;;;-0.64;100.00
59588;BME280;45412;54.472;18.464;2024-01-10T17:26:44;101027.08;;;-0.66;100.00
59588;BME280;45412;54.472;18.464;2024-01-10T17:29:33;101026.23;;;-0.68;100.00
59588;BME280;45412;54.472;18.464;2024-01-10T17:32:22;101023.13;;;-0.70;100.00
59588;BME280;45412;54.472;18.464;2024-01-10T17:35:10;101017.77;;;-0.73;100.00
59588;BME280;45412;54.472;18.464;2024-01-10T17:38:03;101021.96;;;-0.74;100.00
59588;BME280;45412;54.472;18.464;2024-01-10T17:40:53;101016.41;;;-0.74;100.00
59588;BME280;45412;54.472;18.464;2024-01-10T17:43:42;101009.95;;;-0.75;100.00
59588;BME280;45412;54.472;18.464;2024-01-10T17:46:30;101005.29;;;-0.77;100.00
59588;BME280;45412;54.472;18.464;2024-01-10T17:49:18;101001.80;;;-0.77;100.00
59588;BME280;45412;54.472;18.464;2024-01-10T17:52:06;101003.59;;;-0.80;100.00
59588;BME280;45412;54.472;18.464;2024-01-10T17:54:54;101006.92;;;-0.82;100.00
59588;BME280;45412;54.472;18.464;2024-01-10T17:57:42;101006.06;;;-0.82;100.00
59588;BME280;45412;54.472;18.464;2024-01-10T18:00:31;101004.86;;;-0.83;100.00
59588;BME280;45412;54.472;18.464;2024-01-10T18:03:19;101000.14;;;-0.83;100.00
59588;BME280;45412;54.472;18.464;2024-01-10T18:06:06;101007.27;;;-0.81;100.00
59588;BME280;45412;54.472;18.464;2024-01-10T18:08:55;101009.88;;;-0.81;100.00
59588;BME280;45412;54.472;18.464;2024-01-10T18:11:45;101002.20;;;-0.81;100.00
59588;BME280;45412;54.472;18.464;2024-01-10T18:14:34;100994.20;;;-0.82;100.00
59588;BME280;45412;54.472;18.464;2024-01-10T18:17:21;100992.27;;;-0.81;100.00
59588;BME280;45412;54.472;18.464;2024-01-10T18:20:12;100986.50;;;-0.78;100.00
59588;BME280;45412;54.472;18.464;2024-01-10T18:23:00;100989.10;;;-0.78;100.00
59588;BME280;45412;54.472;18.464;2024-01-10T18:25:48;100983.33;;;-0.77;100.00
59588;BME280;45412;54.472;18.464;2024-01-10T18:28:36;100974.59;;;-0.76;100.00
59588;BME280;45412;54.472;18.464;2024-01-10T18:31:24;100971.64;;;-0.76;100.00
59588;BME280;45412;54.472;18.464;2024-01-10T18:34:12;100966.77;;;-0.78;100.00
59588;BME280;45412;54.472;18.464;2024-01-10T18:37:00;100962.25;;;-0.79;100.00
59588;BME280;45412;54.472;18.464;2024-01-10T18:39:48;100963.32;;;-0.79;100.00
59588;BME280;45412;54.472;18.464;2024-01-10T18:42:39;100946.70;;;-0.77;100.00
59588;BME280;45412;54.472;18.464;2024-01-10T18:45:27;100941.30;;;-0.75;100.00
59588;BME280;45412;54.472;18.464;2024-01-10T18:48:19;100942.38;;;-0.78;100.00
59588;BME280;45412;54.472;18.464;2024-01-10T18:51:07;100945.13;;;-0.74;100.00
59588;BME280;45412;54.472;18.464;2024-01-10T18:53:57;100945.61;;;-0.73;100.00
59588;BME280;45412;54.472;18.464;2024-01-10T18:56:45;100940.38;;;-0.73;100.00
59588;BME280;45412;54.472;18.464;2024-01-10T18:59:33;100934.09;;;-0.72;100.00
59588;BME280;45412;54.472;18.464;2024-01-10T19:02:21;100932.87;;;-0.72;100.00
59588;BME280;45412;54.472;18.464;2024-01-10T19:05:09;100927.49;;;-0.74;100.00
59588;BME280;45412;54.472;18.464;2024-01-10T19:08:00;100911.64;;;-0.74;100.00
59588;BME280;45412;54.472;18.464;2024-01-10T19:10:48;100911.30;;;-0.74;100.00
59588;BME280;45412;54.472;18.464;2024-01-10T19:13:36;100907.65;;;-0.74;100.00
59588;BME280;45412;54.472;18.464;2024-01-10T19:16:27;100905.75;;;-0.76;100.00
59588;BME280;45412;54.472;18.464;2024-01-10T19:19:15;100902.98;;;-0.77;100.00
59588;BME280;45412;54.472;18.464;2024-01-10T19:22:03;100891.69;;;-0.79;100.00
59588;BME280;45412;54.472;18.464;2024-01-10T19:24:52;100893.95;;;-0.79;100.00
59588;BME280;45412;54.472;18.464;2024-01-10T19:27:41;100896.92;;;-0.79;100.00
59588;BME280;45412;54.472;18.464;2024-01-10T19:30:29;100904.76;;;-0.79;100.00
59588;BME280;45412;54.472;18.464;2024-01-10T19:33:17;100913.45;;;-0.77;100.00
59588;BME280;45412;54.472;18.464;2024-01-10T19:36:06;100907.52;;;-0.77;100.00
59588;BME280;45412;54.472;18.464;2024-01-10T19:38:56;100903.13;;;-0.75;100.00
59588;BME280;45412;54.472;18.464;2024-01-10T19:41:44;100899.45;;;-0.73;100.00
59588;BME280;45412;54.472;18.464;2024-01-10T19:44:32;100903.46;;;-0.75;100.00
59588;BME280;45412;54.472;18.464;2024-01-10T19:47:20;100908.00;;;-0.75;100.00
59588;BME280;45412;54.472;18.464;2024-01-10T19:50:10;100895.44;;;-0.74;100.00
59588;BME280;45412;54.472;18.464;2024-01-10T19:53:00;100883.07;;;-0.74;100.00
59588;BME280;45412;54.472;18.464;2024-01-10T19:55:48;100884.23;;;-0.72;100.00
59588;BME280;45412;54.472;18.464;2024-01-10T19:58:36;100892.60;;;-0.71;100.00
59588;BME280;45412;54.472;18.464;2024-01-10T20:01:23;100879.17;;;-0.70;100.00
59588;BME280;45412;54.472;18.464;2024-01-10T20:04:12;100872.19;;;-0.70;100.00
59588;BME280;45412;54.472;18.464;2024-01-10T20:07:00;100861.35;;;-0.69;100.00
59588;BME280;45412;54.472;18.464;2024-01-10T20:09:47;100864.29;;;-0.66;100.00
59588;BME280;45412;54.472;18.464;2024-01-10T20:12:37;100867.75;;;-0.65;100.00
59588;BME280;45412;54.472;18.464;2024-01-10T20:15:25;100874.51;;;-0.64;100.00
59588;BME280;45412;54.472;18.464;2024-01-10T20:18:16;100868.55;;;-0.62;100.00
59588;BME280;45412;54.472;18.464;2024-01-10T20:21:04;100861.23;;;-0.62;100.00
59588;BME280;45412;54.472;18.464;2024-01-10T20:23:53;100855.81;;;-0.61;100.00
59588;BME280;45412;54.472;18.464;2024-01-10T20:26:41;100853.88;;;-0.61;100.00
59588;BME280;45412;54.472;18.464;2024-01-10T20:29:29;100841.13;;;-0.59;100.00
59588;BME280;45412;54.472;18.464;2024-01-10T20:32:19;100839.56;;;-0.59;100.00
59588;BME280;45412;54.472;18.464;2024-01-10T20:35:08;100842.34;;;-0.58;100.00
59588;BME280;45412;54.472;18.464;2024-01-10T20:37:56;100840.58;;;-0.57;100.00
59588;BME280;45412;54.472;18.464;2024-01-10T20:40:47;100844.06;;;-0.58;100.00
59588;BME280;45412;54.472;18.464;2024-01-10T20:43:36;100831.16;;;-0.57;100.00
59588;BME280;45412;54.472;18.464;2024-01-10T20:46:25;100819.30;;;-0.57;100.00
59588;BME280;45412;54.472;18.464;2024-01-10T20:49:13;100819.11;;;-0.56;100.00
59588;BME280;45412;54.472;18.464;2024-01-10T20:52:03;100806.72;;;-0.55;100.00
59588;BME280;45412;54.472;18.464;2024-01-10T20:54:52;100808.42;;;-0.53;100.00
59588;BME280;45412;54.472;18.464;2024-01-10T20:57:40;100797.06;;;-0.52;100.00
59588;BME280;45412;54.472;18.464;2024-01-10T21:00:30;100789.36;;;-0.50;100.00
59588;BME280;45412;54.472;18.464;2024-01-10T21:03:21;100790.36;;;-0.48;100.00
59588;BME280;45412;54.472;18.464;2024-01-10T21:06:10;100780.95;;;-0.48;100.00
59588;BME280;45412;54.472;18.464;2024-01-10T21:09:02;100780.27;;;-0.49;100.00
59588;BME280;45412;54.472;18.464;2024-01-10T21:11:51;100769.95;;;-0.47;100.00
59588;BME280;45412;54.472;18.464;2024-01-10T21:14:41;100758.27;;;-0.47;100.00
59588;BME280;45412;54.472;18.464;2024-01-10T21:17:42;100751.26;;;-0.46;100.00
59588;BME280;45412;54.472;18.464;2024-01-10T21:20:35;100747.23;;;-0.45;100.00
59588;BME280;45412;54.472;18.464;2024-01-10T21:23:23;100755.41;;;-0.44;100.00
59588;BME280;45412;54.472;18.464;2024-01-10T21:26:13;100759.64;;;-0.47;100.00
59588;BME280;45412;54.472;18.464;2024-01-10T21:29:01;100761.95;;;-0.48;100.00
59588;BME280;45412;54.472;18.464;2024-01-10T21:31:50;100767.08;;;-0.52;100.00
59588;BME280;45412;54.472;18.464;2024-01-10T21:34:43;100766.52;;;-0.50;100.00
59588;BME280;45412;54.472;18.464;2024-01-10T21:37:31;100767.87;;;-0.48;100.00
59588;BME280;45412;54.472;18.464;2024-01-10T21:40:19;100751.97;;;-0.47;100.00
59588;BME280;45412;54.472;18.464;2024-01-10T21:43:13;100765.06;;;-0.47;100.00
59588;BME280;45412;54.472;18.464;2024-01-10T21:46:10;100754.60;;;-0.48;100.00
59588;BME280;45412;54.472;18.464;2024-01-10T21:49:01;100753.38;;;-0.47;100.00
59588;BME280;45412;54.472;18.464;2024-01-10T21:51:50;100766.95;;;-0.45;100.00
59588;BME280;45412;54.472;18.464;2024-01-10T21:54:38;100771.63;;;-0.44;100.00
59588;BME280;45412;54.472;18.464;2024-01-10T21:57:27;100772.52;;;-0.45;100.00
59588;BME280;45412;54.472;18.464;2024-01-10T22:00:15;100771.50;;;-0.47;100.00
59588;BME280;45412;54.472;18.464;2024-01-10T22:03:04;100755.95;;;-0.45;100.00
59588;BME280;45412;54.472;18.464;2024-01-10T22:05:55;100736.69;;;-0.49;100.00
59588;BME280;45412;54.472;18.464;2024-01-10T22:08:43;100730.75;;;-0.49;100.00
59588;BME280;45412;54.472;18.464;2024-01-10T22:11:31;100718.34;;;-0.47;100.00
59588;BME280;45412;54.472;18.464;2024-01-10T22:14:20;100722.91;;;-0.49;100.00
59588;BME280;45412;54.472;18.464;2024-01-10T22:17:08;100710.42;;;-0.52;100.00
59588;BME280;45412;54.472;18.464;2024-01-10T22:19:55;100721.21;;;-0.51;100.00
59588;BME280;45412;54.472;18.464;2024-01-10T22:22:43;100714.73;;;-0.50;100.00
59588;BME280;45412;54.472;18.464;2024-01-10T22:25:31;100709.64;;;-0.48;100.00
59588;BME280;45412;54.472;18.464;2024-01-10T22:28:19;100706.27;;;-0.46;100.00
59588;BME280;45412;54.472;18.464;2024-01-10T22:31:07;100714.27;;;-0.45;100.00
59588;BME280;45412;54.472;18.464;2024-01-10T22:33:55;100699.58;;;-0.50;100.00
59588;BME280;45412;54.472;18.464;2024-01-10T22:36:43;100688.09;;;-0.44;100.00
59588;BME280;45412;54.472;18.464;2024-01-10T22:39:31;100674.67;;;-0.43;100.00
59588;BME280;45412;54.472;18.464;2024-01-10T22:42:19;100686.13;;;-0.41;100.00
59588;BME280;45412;54.472;18.464;2024-01-10T22:45:08;100685.56;;;-0.40;100.00
59588;BME280;45412;54.472;18.464;2024-01-10T22:47:56;100678.39;;;-0.39;100.00
59588;BME280;45412;54.472;18.464;2024-01-10T22:50:43;100673.13;;;-0.38;100.00
59588;BME280;45412;54.472;18.464;2024-01-10T22:53:31;100657.80;;;-0.39;100.00
59588;BME280;45412;54.472;18.464;2024-01-10T22:56:19;100636.50;;;-0.37;100.00
59588;BME280;45412;54.472;18.464;2024-01-10T22:59:07;100640.11;;;-0.34;100.00
59588;BME280;45412;54.472;18.464;2024-01-10T23:01:55;100637.86;;;-0.36;100.00
59588;BME280;45412;54.472;18.464;2024-01-10T23:04:43;100630.00;;;-0.34;100.00
59588;BME280;45412;54.472;18.464;2024-01-10T23:07:31;100615.63;;;-0.32;100.00
59588;BME280;45412;54.472;18.464;2024-01-10T23:10:19;100598.73;;;-0.32;100.00
59588;BME280;45412;54.472;18.464;2024-01-10T23:13:07;100594.17;;;-0.32;100.00
59588;BME280;45412;54.472;18.464;2024-01-10T23:15:55;100582.88;;;-0.33;100.00
59588;BME280;45412;54.472;18.464;2024-01-10T23:18:43;100565.25;;;-0.32;100.00
59588;BME280;45412;54.472;18.464;2024-01-10T23:21:31;100567.67;;;-0.31;100.00
59588;BME280;45412;54.472;18.464;2024-01-10T23:24:24;100561.86;;;-0.29;100.00
59588;BME280;45412;54.472;18.464;2024-01-10T23:27:13;100558.20;;;-0.29;100.00
59588;BME280;45412;54.472;18.464;2024-01-10T23:30:01;100563.05;;;-0.28;100.00
59588;BME280;45412;54.472;18.464;2024-01-10T23:32:52;100563.35;;;-0.26;100.00
59588;BME280;45412;54.472;18.464;2024-01-10T23:35:40;100560.04;;;-0.26;100.00
59588;BME280;45412;54.472;18.464;2024-01-10T23:38:35;100572.44;;;-0.27;100.00
59588;BME280;45412;54.472;18.464;2024-01-10T23:41:23;100587.78;;;-0.27;100.00
59588;BME280;45412;54.472;18.464;2024-01-10T23:44:12;100600.96;;;-0.24;100.00
59588;BME280;45412;54.472;18.464;2024-01-10T23:47:01;100609.15;;;-0.23;100.00
59588;BME280;45412;54.472;18.464;2024-01-10T23:49:49;100626.91;;;-0.22;100.00
59588;BME280;45412;54.472;18.464;2024-01-10T23:52:37;100640.94;;;-0.25;100.00